createdAt,value
2022-09-27T00:01:15.427Z,17.08
2022-09-27T00:03:43.594Z,16.86
2022-09-27T00:06:15.688Z,16.68
2022-09-27T00:08:44.588Z,16.37
2022-09-27T00:11:18.959Z,16.29
2022-09-27T00:13:47.041Z,16.25
2022-09-27T00:16:15.341Z,16.30
2022-09-27T00:18:43.770Z,16.37
2022-09-27T00:21:15.479Z,16.37
2022-09-27T00:23:43.670Z,16.40
2022-09-27T00:26:14.221Z,16.49
2022-09-27T00:28:42.523Z,16.45
2022-09-27T00:31:21.250Z,16.54
2022-09-27T00:33:50.252Z,16.53
2022-09-27T00:36:21.042Z,16.55
2022-09-27T00:38:49.627Z,16.56
2022-09-27T00:41:20.238Z,16.59
2022-09-27T00:43:50.573Z,16.58
2022-09-27T00:46:27.558Z,16.57
2022-09-27T00:49:05.419Z,16.57
2022-09-27T00:51:38.348Z,16.63
2022-09-27T00:54:08.583Z,16.61
2022-09-27T00:56:38.436Z,16.63
2022-09-27T00:59:11.995Z,16.61
2022-09-27T01:01:40.672Z,16.59
2022-09-27T01:04:10.859Z,16.59
2022-09-27T01:06:40.302Z,16.56
2022-09-27T01:09:10.592Z,16.60
2022-09-27T01:11:47.003Z,16.62
2022-09-27T01:14:44.256Z,16.60
2022-09-27T01:17:27.794Z,16.59
2022-09-27T01:20:31.451Z,16.62
2022-09-27T01:23:20.655Z,16.69
2022-09-27T01:26:01.981Z,16.71
2022-09-27T01:28:44.861Z,16.72
2022-09-27T01:31:24.174Z,16.72
2022-09-27T01:34:04.116Z,16.76
2022-09-27T01:36:43.642Z,16.74
2022-09-27T01:39:39.386Z,16.70
2022-09-27T01:42:15.581Z,16.70
2022-09-27T01:44:53.678Z,16.72
2022-09-27T01:47:24.464Z,16.73
2022-09-27T01:49:58.250Z,16.83
2022-09-27T01:52:33.058Z,16.88
2022-09-27T01:55:04.219Z,16.85
2022-09-27T01:57:37.665Z,16.78
2022-09-27T02:00:08.817Z,16.75
2022-09-27T02:02:44.650Z,16.75
2022-09-27T02:05:17.948Z,16.75
2022-09-27T02:07:52.903Z,16.73
2022-09-27T02:10:24.993Z,16.73
2022-09-27T02:13:03.002Z,16.75
2022-09-27T02:15:40.327Z,16.70
2022-09-27T02:18:17.788Z,16.69
2022-09-27T02:20:50.683Z,16.68
2022-09-27T02:23:24.942Z,16.70
2022-09-27T02:25:58.793Z,16.71
2022-09-27T02:28:32.291Z,16.76
2022-09-27T02:31:00.949Z,16.72
2022-09-27T02:33:35.567Z,16.70
2022-09-27T02:36:03.804Z,16.65
2022-09-27T02:38:32.060Z,16.62
2022-09-27T02:41:00.173Z,16.63
2022-09-27T02:43:32.233Z,16.67
2022-09-27T02:46:12.802Z,16.65
2022-09-27T02:48:50.787Z,16.62
2022-09-27T02:51:40.179Z,16.63
2022-09-27T02:54:19.632Z,16.84
2022-09-27T02:57:05.655Z,16.78
2022-09-27T02:59:43.104Z,16.78
2022-09-27T03:02:18.067Z,16.73
2022-09-27T03:04:53.156Z,16.76
2022-09-27T03:07:22.159Z,16.60
2022-09-27T03:09:53.601Z,16.51
2022-09-27T03:12:26.180Z,16.53
2022-09-27T03:14:56.289Z,16.38
2022-09-27T03:17:24.525Z,16.44
2022-09-27T03:19:53.913Z,16.42
2022-09-27T03:22:22.379Z,16.45
2022-09-27T03:24:50.411Z,16.49
2022-09-27T03:27:18.706Z,16.47
2022-09-27T03:29:47.219Z,16.33
2022-09-27T03:32:15.435Z,16.33
2022-09-27T03:34:43.516Z,16.33
2022-09-27T03:37:12.878Z,16.39
2022-09-27T03:39:40.927Z,16.37
2022-09-27T03:42:08.902Z,16.38
2022-09-27T03:44:37.112Z,16.39
2022-09-27T03:47:05.218Z,16.44
2022-09-27T03:49:33.966Z,16.33
2022-09-27T03:52:02.212Z,16.30
2022-09-27T03:54:31.616Z,16.28
2022-09-27T03:56:59.575Z,16.38
2022-09-27T03:59:27.603Z,16.41
2022-09-27T04:01:56.406Z,16.38
2022-09-27T04:04:25.079Z,16.29
2022-09-27T04:06:53.303Z,16.31
2022-09-27T04:09:21.389Z,16.27
2022-09-27T04:11:50.780Z,16.25
2022-09-27T04:14:18.802Z,16.21
2022-09-27T04:16:46.903Z,16.15
2022-09-27T04:19:15.110Z,16.21
2022-09-27T04:21:43.292Z,16.40
2022-09-27T04:24:12.046Z,16.28
2022-09-27T04:26:40.741Z,16.19
2022-09-27T04:29:10.463Z,16.28
2022-09-27T04:31:38.553Z,16.32
2022-09-27T04:34:06.961Z,16.30
2022-09-27T04:36:34.524Z,16.27
2022-09-27T04:39:04.842Z,16.28
2022-09-27T04:41:33.274Z,16.31
2022-09-27T04:44:01.404Z,16.38
2022-09-27T04:46:32.263Z,16.38
2022-09-27T04:49:01.460Z,16.36
2022-09-27T04:51:29.760Z,16.37
2022-09-27T04:53:58.327Z,16.46
2022-09-27T04:56:26.492Z,16.48
2022-09-27T04:58:55.022Z,16.51
2022-09-27T05:01:23.399Z,16.43
2022-09-27T05:03:52.923Z,16.42
2022-09-27T05:06:20.906Z,16.43
2022-09-27T05:08:48.932Z,16.43
2022-09-27T05:11:16.916Z,16.44
2022-09-27T05:13:44.948Z,16.62
2022-09-27T05:16:13.301Z,16.67
2022-09-27T05:18:42.394Z,16.77
2022-09-27T05:21:11.765Z,16.92
2022-09-27T05:23:41.322Z,17.13
2022-09-27T05:26:12.321Z,17.32
2022-09-27T05:28:44.645Z,17.35
2022-09-27T05:31:13.511Z,17.37
2022-09-27T05:33:42.960Z,17.37
2022-09-27T05:36:12.781Z,17.36
2022-09-27T05:38:43.091Z,17.50
2022-09-27T05:41:12.048Z,17.48
2022-09-27T05:43:40.109Z,17.53
2022-09-27T05:46:08.546Z,17.50
2022-09-27T05:48:37.278Z,17.53
2022-09-27T05:51:06.358Z,17.59
2022-09-27T05:53:36.623Z,17.69
2022-09-27T05:56:05.686Z,17.81
2022-09-27T05:58:34.519Z,17.81
2022-09-27T06:01:02.475Z,18.01
2022-09-27T06:03:31.998Z,17.97
2022-09-27T06:06:06.183Z,17.90
2022-09-27T06:08:36.978Z,17.95
2022-09-27T06:11:07.024Z,17.92
2022-09-27T06:13:36.485Z,17.98
2022-09-27T06:16:05.889Z,18.09
2022-09-27T06:18:34.486Z,18.11
2022-09-27T06:21:03.106Z,18.28
2022-09-27T06:23:33.431Z,18.33
2022-09-27T06:26:05.086Z,18.42
2022-09-27T06:28:35.098Z,18.52
2022-09-27T06:31:03.102Z,18.61
2022-09-27T06:33:31.408Z,18.72
2022-09-27T06:36:03.725Z,18.75
2022-09-27T06:38:32.958Z,18.76
2022-09-27T06:41:07.052Z,18.86
2022-09-27T06:43:35.230Z,18.82
2022-09-27T06:46:06.085Z,18.82
2022-09-27T06:48:37.770Z,18.75
2022-09-27T06:51:05.861Z,18.58
2022-09-27T06:53:34.359Z,18.62
2022-09-27T06:56:04.966Z,18.74
2022-09-27T06:58:50.385Z,18.86
2022-09-27T07:01:18.887Z,19.00
2022-09-27T07:03:51.565Z,18.91
2022-09-27T07:06:22.736Z,19.08
2022-09-27T07:08:54.244Z,19.30
2022-09-27T07:11:26.115Z,19.50
2022-09-27T07:13:54.138Z,19.61
2022-09-27T07:16:22.143Z,19.70
2022-09-27T07:18:51.648Z,19.91
2022-09-27T07:21:19.888Z,20.12
2022-09-27T07:23:48.719Z,20.04
2022-09-27T07:26:16.786Z,20.26
2022-09-27T07:28:46.284Z,20.40
2022-09-27T07:31:14.468Z,20.48
2022-09-27T07:33:43.629Z,20.75
2022-09-27T07:36:13.131Z,20.70
2022-09-27T07:38:41.359Z,20.79
2022-09-27T07:41:12.485Z,21.09
2022-09-27T07:43:40.465Z,21.21
2022-09-27T07:46:11.314Z,21.39
2022-09-27T07:48:41.231Z,21.43
2022-09-27T07:51:10.971Z,21.55
2022-09-27T07:53:39.718Z,21.74
2022-09-27T07:56:08.222Z,21.80
2022-09-27T07:58:36.228Z,21.44
2022-09-27T08:01:04.407Z,21.36
2022-09-27T08:03:35.054Z,21.36
2022-09-27T08:06:04.417Z,21.13
2022-09-27T08:08:32.570Z,21.01
2022-09-27T08:11:00.592Z,21.08
2022-09-27T08:13:29.646Z,21.04
2022-09-27T08:16:03.737Z,21.06
2022-09-27T08:18:35.929Z,21.05
2022-09-27T08:21:05.006Z,21.12
2022-09-27T08:23:33.171Z,21.50
2022-09-27T08:26:01.239Z,21.78
2022-09-27T08:28:29.966Z,22.04
2022-09-27T08:30:59.268Z,22.24
2022-09-27T08:33:32.316Z,22.30
2022-09-27T08:36:03.644Z,21.72
2022-09-27T08:38:31.639Z,21.42
2022-09-27T08:41:06.582Z,21.45
2022-09-27T08:43:40.528Z,21.67
2022-09-27T08:46:23.051Z,21.85
2022-09-27T08:48:55.967Z,22.23
2022-09-27T08:51:31.286Z,22.34
2022-09-27T08:54:05.495Z,22.50
2022-09-27T08:56:33.618Z,22.32
2022-09-27T08:59:10.406Z,22.54
2022-09-27T09:01:39.216Z,22.63
2022-09-27T09:04:07.806Z,22.82
2022-09-27T09:06:44.202Z,22.96
2022-09-27T09:09:27.621Z,23.05
2022-09-27T09:12:24.489Z,22.94
2022-09-27T09:15:05.891Z,23.06
2022-09-27T09:17:47.823Z,23.16
2022-09-27T09:20:27.429Z,23.24
2022-09-27T09:23:16.585Z,23.45
2022-09-27T09:25:52.173Z,23.53
2022-09-27T09:28:36.177Z,23.64
2022-09-27T09:31:13.015Z,23.67
2022-09-27T09:33:47.506Z,23.63
2022-09-27T09:36:24.279Z,23.76
2022-09-27T09:38:58.561Z,24.06
2022-09-27T09:41:32.322Z,24.00
2022-09-27T09:44:06.344Z,23.96
2022-09-27T09:46:43.434Z,24.15
2022-09-27T09:49:20.158Z,24.01
2022-09-27T09:51:55.907Z,23.96
2022-09-27T09:54:28.762Z,23.66
2022-09-27T09:57:03.658Z,23.83
2022-09-27T09:59:39.749Z,23.91
2022-09-27T10:02:25.052Z,24.06
2022-09-27T10:04:53.121Z,24.04
2022-09-27T10:07:23.699Z,23.73
2022-09-27T10:09:55.413Z,23.58
2022-09-27T10:12:23.683Z,23.62
2022-09-27T10:14:53.095Z,23.53
2022-09-27T10:17:25.528Z,23.39
2022-09-27T10:19:54.823Z,23.33
2022-09-27T10:22:28.486Z,23.37
2022-09-27T10:25:01.945Z,23.37
2022-09-27T10:27:38.988Z,23.36
2022-09-27T10:30:28.080Z,23.25
2022-09-27T10:33:01.002Z,23.31
2022-09-27T10:35:38.287Z,23.15
2022-09-27T10:38:25.404Z,23.10
2022-09-27T10:40:57.359Z,23.24
2022-09-27T10:43:31.423Z,23.25
2022-09-27T10:46:07.693Z,23.41
2022-09-27T10:48:36.824Z,23.62
2022-09-27T10:51:07.928Z,23.47
2022-09-27T10:53:37.998Z,23.56
2022-09-27T10:56:08.465Z,23.50
2022-09-27T10:58:39.621Z,23.50
2022-09-27T11:01:12.421Z,23.54
2022-09-27T11:03:49.298Z,23.50
2022-09-27T11:06:28.352Z,23.41
2022-09-27T11:09:10.641Z,23.44
2022-09-27T11:11:39.993Z,23.42
2022-09-27T11:14:20.040Z,23.52
2022-09-27T11:16:57.269Z,23.89
2022-09-27T11:19:42.470Z,23.92
2022-09-27T11:22:25.862Z,24.02
2022-09-27T11:25:14.050Z,24.08
2022-09-27T11:27:57.608Z,23.92
2022-09-27T11:30:26.213Z,23.81
2022-09-27T11:33:26.698Z,24.04
2022-09-27T11:36:02.849Z,24.19
2022-09-27T11:38:52.708Z,24.23
2022-09-27T11:41:46.333Z,24.28
2022-09-27T11:44:45.539Z,24.13
2022-09-27T11:47:21.274Z,24.11
2022-09-27T11:50:44.708Z,24.28
2022-09-27T11:53:26.943Z,24.49
2022-09-27T11:56:04.695Z,24.62
2022-09-27T11:58:43.253Z,24.64
2022-09-27T12:01:26.912Z,24.82
2022-09-27T12:04:20.412Z,24.99
2022-09-27T12:06:58.872Z,25.25
2022-09-27T12:09:32.254Z,25.30
2022-09-27T12:12:05.546Z,25.51
2022-09-27T12:14:40.230Z,25.58
2022-09-27T12:17:16.828Z,25.84
2022-09-27T12:19:50.969Z,25.98
2022-09-27T12:22:46.665Z,26.15
2022-09-27T12:25:20.294Z,26.31
2022-09-27T12:27:53.764Z,26.52
2022-09-27T12:30:21.724Z,26.65
2022-09-27T12:32:57.903Z,26.85
2022-09-27T12:35:30.243Z,27.01
2022-09-27T12:38:02.291Z,27.22
2022-09-27T12:40:33.129Z,27.33
2022-09-27T12:43:06.051Z,27.11
2022-09-27T12:45:47.232Z,27.19
2022-09-27T12:48:24.661Z,27.31
2022-09-27T12:50:55.420Z,27.41
2022-09-27T12:53:28.632Z,27.42
2022-09-27T12:56:15.123Z,27.47
2022-09-27T12:59:23.895Z,27.57
2022-09-27T13:02:26.883Z,27.64
2022-09-27T13:05:18.400Z,27.50
2022-09-27T13:07:55.271Z,27.37
2022-09-27T13:10:45.230Z,27.21
2022-09-27T13:13:16.991Z,27.15
2022-09-27T13:15:47.168Z,27.06
2022-09-27T13:18:50.204Z,27.10
2022-09-27T13:22:04.253Z,27.15
2022-09-27T13:24:48.506Z,27.14
2022-09-27T13:27:38.139Z,26.90
2022-09-27T13:30:48.686Z,26.92
2022-09-27T13:33:46.099Z,26.94
2022-09-27T13:36:34.085Z,26.80
2022-09-27T13:39:22.867Z,26.77
2022-09-27T13:42:17.831Z,26.72
2022-09-27T13:44:54.977Z,26.75
2022-09-27T13:47:32.967Z,26.83
2022-09-27T13:50:15.104Z,26.96
2022-09-27T13:52:46.266Z,26.97
2022-09-27T13:55:41.715Z,27.03
2022-09-27T13:58:34.558Z,27.05
2022-09-27T14:01:07.847Z,26.87
2022-09-27T14:03:38.764Z,26.73
2022-09-27T14:06:09.384Z,26.56
2022-09-27T14:08:45.547Z,26.36
2022-09-27T14:11:17.162Z,26.21
2022-09-27T14:13:48.572Z,25.93
2022-09-27T14:16:19.740Z,25.70
2022-09-27T14:18:51.203Z,25.47
2022-09-27T14:21:27.186Z,25.25
2022-09-27T14:23:55.367Z,24.96
2022-09-27T14:26:25.751Z,24.71
2022-09-27T14:28:55.532Z,24.55
2022-09-27T14:31:24.988Z,24.39
2022-09-27T14:34:07.361Z,24.30
2022-09-27T14:36:54.843Z,24.25
2022-09-27T14:39:26.533Z,24.23
2022-09-27T14:41:54.694Z,24.18
2022-09-27T14:44:28.108Z,24.20
2022-09-27T14:47:10.359Z,24.18
2022-09-27T14:49:48.636Z,24.09
2022-09-27T14:52:24.379Z,23.99
2022-09-27T14:54:59.789Z,23.93
2022-09-27T14:57:30.379Z,23.90
2022-09-27T15:00:01.233Z,23.91
2022-09-27T15:02:30.660Z,23.87
2022-09-27T15:04:58.763Z,23.79
2022-09-27T15:07:28.027Z,23.70
2022-09-27T15:09:56.812Z,23.76
2022-09-27T15:12:27.481Z,23.91
2022-09-27T15:14:59.384Z,23.80
2022-09-27T15:17:28.913Z,23.70
2022-09-27T15:20:06.875Z,23.62
2022-09-27T15:22:45.056Z,23.57
2022-09-27T15:25:32.593Z,23.50
2022-09-27T15:28:02.736Z,23.46
2022-09-27T15:30:36.695Z,23.43
2022-09-27T15:33:08.769Z,23.38
2022-09-27T15:35:37.449Z,23.36
2022-09-27T15:38:26.001Z,23.33
2022-09-27T15:41:13.094Z,23.29
2022-09-27T15:43:45.557Z,23.29
2022-09-27T15:46:39.715Z,23.26
2022-09-27T15:49:30.948Z,23.22
2022-09-27T15:52:00.611Z,23.26
2022-09-27T15:54:30.826Z,23.20
2022-09-27T15:57:05.058Z,23.10
2022-09-27T15:59:36.103Z,23.01
2022-09-27T16:02:08.206Z,22.92
2022-09-27T16:04:37.860Z,22.84
2022-09-27T16:07:09.147Z,22.79
2022-09-27T16:09:37.306Z,22.70
2022-09-27T16:12:05.682Z,22.64
2022-09-27T16:14:33.812Z,22.61
2022-09-27T16:17:02.442Z,22.59
2022-09-27T16:19:30.468Z,22.58
2022-09-27T16:22:03.702Z,22.41
2022-09-27T16:24:32.347Z,22.05
2022-09-27T16:27:00.714Z,21.80
2022-09-27T16:29:28.767Z,21.57
2022-09-27T16:31:57.143Z,21.54
2022-09-27T16:34:25.282Z,21.44
2022-09-27T16:36:53.349Z,21.34
2022-09-27T16:39:22.856Z,21.25
2022-09-27T16:41:54.788Z,21.15
2022-09-27T16:44:22.727Z,21.12
2022-09-27T16:46:50.911Z,21.12
2022-09-27T16:49:36.520Z,21.13
2022-09-27T16:52:04.720Z,21.17
2022-09-27T16:54:34.232Z,21.14
2022-09-27T16:57:02.255Z,21.11
2022-09-27T16:59:30.320Z,21.17
2022-09-27T17:01:58.745Z,21.20
2022-09-27T17:04:27.966Z,21.35
2022-09-27T17:06:57.055Z,21.22
2022-09-27T17:09:25.629Z,21.09
2022-09-27T17:11:55.543Z,21.14
2022-09-27T17:14:24.010Z,21.16
2022-09-27T17:16:52.560Z,21.19
2022-09-27T17:19:21.083Z,21.18
2022-09-27T17:21:49.029Z,21.17
2022-09-27T17:24:17.163Z,21.15
2022-09-27T17:26:45.950Z,21.11
2022-09-27T17:29:16.280Z,21.08
2022-09-27T17:31:44.681Z,21.00
2022-09-27T17:34:15.845Z,20.92
2022-09-27T17:36:48.400Z,20.87
2022-09-27T17:39:18.982Z,20.82
2022-09-27T17:41:47.069Z,20.83
2022-09-27T17:44:18.308Z,20.81
2022-09-27T17:46:47.528Z,20.78
2022-09-27T17:49:33.506Z,20.74
2022-09-27T17:52:01.853Z,20.70
2022-09-27T17:54:29.949Z,20.63
2022-09-27T17:56:58.541Z,20.56
2022-09-27T17:59:28.034Z,20.52
2022-09-27T18:01:56.114Z,20.60
2022-09-27T18:04:24.175Z,20.58
2022-09-27T18:06:52.227Z,20.49
2022-09-27T18:09:20.283Z,20.31
2022-09-27T18:11:48.431Z,20.18
2022-09-27T18:14:16.795Z,20.10
2022-09-27T18:16:46.310Z,20.05
2022-09-27T18:19:16.574Z,20.01
2022-09-27T18:21:45.336Z,20.07
2022-09-27T18:24:14.306Z,20.09
2022-09-27T18:26:43.121Z,20.08
2022-09-27T18:29:13.382Z,20.00
2022-09-27T18:31:47.485Z,19.95
2022-09-27T18:34:18.999Z,19.77
2022-09-27T18:36:47.607Z,19.77
2022-09-27T18:39:19.447Z,19.80
2022-09-27T18:41:49.574Z,19.80
2022-09-27T18:44:19.163Z,19.71
2022-09-27T18:46:48.062Z,19.71
2022-09-27T18:49:18.098Z,19.74
2022-09-27T18:51:49.528Z,19.74
2022-09-27T18:54:20.976Z,19.77
2022-09-27T18:56:50.833Z,19.85
2022-09-27T18:59:20.791Z,19.76
2022-09-27T19:01:49.037Z,19.71
2022-09-27T19:04:24.601Z,19.62
2022-09-27T19:06:54.966Z,19.54
2022-09-27T19:09:23.409Z,19.48
2022-09-27T19:11:52.109Z,19.45
2022-09-27T19:14:22.724Z,19.49
2022-09-27T19:16:52.253Z,19.41
2022-09-27T19:19:22.429Z,19.38
2022-09-27T19:21:50.873Z,19.37
2022-09-27T19:24:19.923Z,19.39
2022-09-27T19:26:50.037Z,19.45
2022-09-27T19:29:18.183Z,19.56
2022-09-27T19:31:46.585Z,19.54
2022-09-27T19:34:14.623Z,19.48
2022-09-27T19:36:44.437Z,19.46
2022-09-27T19:39:12.443Z,19.59
2022-09-27T19:41:40.436Z,19.60
2022-09-27T19:44:08.552Z,19.52
2022-09-27T19:46:37.591Z,19.47
2022-09-27T19:49:05.725Z,19.44
2022-09-27T19:51:34.069Z,19.39
2022-09-27T19:54:04.293Z,19.37
2022-09-27T19:56:32.431Z,19.38
2022-09-27T19:59:04.972Z,19.35
2022-09-27T20:01:35.069Z,19.34
2022-09-27T20:04:03.563Z,19.33
2022-09-27T20:06:32.763Z,19.36
2022-09-27T20:09:03.081Z,19.35
2022-09-27T20:11:34.073Z,19.32
2022-09-27T20:14:02.289Z,19.27
2022-09-27T20:16:30.335Z,19.25
2022-09-27T20:19:00.363Z,19.20
2022-09-27T20:21:33.120Z,19.15
2022-09-27T20:24:02.762Z,19.10
2022-09-27T20:26:34.608Z,19.06
2022-09-27T20:29:04.936Z,19.04
2022-09-27T20:31:36.970Z,19.03
2022-09-27T20:34:06.569Z,19.05
2022-09-27T20:36:37.967Z,19.08
2022-09-27T20:39:07.469Z,19.12
2022-09-27T20:41:39.283Z,19.20
2022-09-27T20:44:09.194Z,19.23
2022-09-27T20:46:39.549Z,19.20
2022-09-27T20:49:14.754Z,19.14
2022-09-27T20:52:04.966Z,19.09
2022-09-27T20:54:33.214Z,19.05
2022-09-27T20:57:02.612Z,19.00
2022-09-27T20:59:30.651Z,18.96
2022-09-27T21:01:59.253Z,18.92
2022-09-27T21:04:27.377Z,18.87
2022-09-27T21:06:56.593Z,18.85
2022-09-27T21:09:24.758Z,18.84
2022-09-27T21:11:54.013Z,18.82
2022-09-27T21:14:24.276Z,18.85
2022-09-27T21:16:52.505Z,18.85
2022-09-27T21:19:20.562Z,18.82
2022-09-27T21:21:48.608Z,18.78
2022-09-27T21:24:16.861Z,18.73
2022-09-27T21:26:44.902Z,18.76
2022-09-27T21:29:15.147Z,18.73
2022-09-27T21:31:45.044Z,18.73
2022-09-27T21:34:13.042Z,18.82
2022-09-27T21:36:41.288Z,18.75
2022-09-27T21:39:10.674Z,18.72
2022-09-27T21:41:39.359Z,18.62
2022-09-27T21:44:07.751Z,18.48
2022-09-27T21:46:36.488Z,18.40
2022-09-27T21:49:05.923Z,18.34
2022-09-27T21:51:37.762Z,18.26
2022-09-27T21:54:08.841Z,18.22
2022-09-27T21:56:38.938Z,18.19
2022-09-27T21:59:08.201Z,18.16
2022-09-27T22:01:36.656Z,18.13
2022-09-27T22:04:07.895Z,18.09
2022-09-27T22:06:38.480Z,18.03
2022-09-27T22:09:10.666Z,18.02
2022-09-27T22:11:42.979Z,17.97
2022-09-27T22:14:13.433Z,17.93
2022-09-27T22:16:41.492Z,17.91
2022-09-27T22:19:12.283Z,17.89
2022-09-27T22:21:41.193Z,17.86
2022-09-27T22:24:12.172Z,17.81
2022-09-27T22:26:42.452Z,17.77
2022-09-27T22:29:10.578Z,17.74
2022-09-27T22:31:38.989Z,17.69
2022-09-27T22:34:10.840Z,17.64
2022-09-27T22:36:40.677Z,17.59
2022-09-27T22:39:08.854Z,17.54
2022-09-27T22:41:38.141Z,17.49
2022-09-27T22:44:06.354Z,17.44
2022-09-27T22:46:34.363Z,17.37
2022-09-27T22:49:02.684Z,17.34
2022-09-27T22:51:31.118Z,17.29
2022-09-27T22:54:00.945Z,17.30
2022-09-27T22:56:29.076Z,17.27
2022-09-27T22:58:57.592Z,17.24
2022-09-27T23:01:26.698Z,17.24
2022-09-27T23:03:56.023Z,17.34
2022-09-27T23:06:24.420Z,17.32
2022-09-27T23:08:53.862Z,17.28
2022-09-27T23:11:24.301Z,17.19
2022-09-27T23:13:53.024Z,17.22
2022-09-27T23:16:25.235Z,17.26
2022-09-27T23:18:54.313Z,17.29
2022-09-27T23:21:24.235Z,17.25
2022-09-27T23:23:52.989Z,17.17
2022-09-27T23:26:24.246Z,17.17
2022-09-27T23:28:54.687Z,17.18
2022-09-27T23:31:24.066Z,17.12
2022-09-27T23:33:53.239Z,17.17
2022-09-27T23:36:24.284Z,17.23
2022-09-27T23:38:52.489Z,17.23
2022-09-27T23:41:20.973Z,17.20
2022-09-27T23:43:49.913Z,17.17
2022-09-27T23:46:19.518Z,17.10
2022-09-27T23:48:47.929Z,17.08
2022-09-27T23:51:16.001Z,16.99
2022-09-27T23:53:44.610Z,16.85
2022-09-27T23:56:15.304Z,16.76
2022-09-27T23:58:45.103Z,16.64
